sensor_id;sensor_type;location;lat;lon;timestamp;temperature;humidity
15596;DHT22;7898;48.658;9.068;2023-03-01T00:01:30;-1.50;99.90
15596;DHT22;7898;48.658;9.068;2023-03-01T00:03:58;-1.30;99.90
15596;DHT22;7898;48.658;9.068;2023-03-01T00:06:26;-1.90;99.90
15596;DHT22;7898;48.658;9.068;2023-03-01T00:08:53;-1.70;99.90
15596;DHT22;7898;48.658;9.068;2023-03-01T00:11:23;-2.10;99.90
15596;DHT22;7898;48.658;9.068;2023-03-01T00:13:52;-2.10;99.90
15596;DHT22;7898;48.658;9.068;2023-03-01T00:16:22;-2.10;99.90
15596;DHT22;7898;48.658;9.068;2023-03-01T00:18:49;-1.30;99.90
15596;DHT22;7898;48.658;9.068;2023-03-01T00:21:17;-2.20;99.90
15596;DHT22;7898;48.658;9.068;2023-03-01T00:23:44;-1.40;99.90
15596;DHT22;7898;48.658;9.068;2023-03-01T00:26:13;-1.50;99.90
15596;DHT22;7898;48.658;9.068;2023-03-01T00:28:42;-1.60;99.90
15596;DHT22;7898;48.658;9.068;2023-03-01T00:31:10;-2.30;99.90
15596;DHT22;7898;48.658;9.068;2023-03-01T00:33:38;-2.30;99.90
15596;DHT22;7898;48.658;9.068;2023-03-01T00:36:06;-2.30;99.90
15596;DHT22;7898;48.658;9.068;2023-03-01T00:38:35;-2.30;99.90
15596;DHT22;7898;48.658;9.068;2023-03-01T00:41:07;-2.20;99.90
15596;DHT22;7898;48.658;9.068;2023-03-01T00:43:34;-1.80;99.90
15596;DHT22;7898;48.658;9.068;2023-03-01T00:46:05;-1.40;99.90
15596;DHT22;7898;48.658;9.068;2023-03-01T00:48:33;-1.30;99.90
15596;DHT22;7898;48.658;9.068;2023-03-01T00:51:05;-2.30;99.90
15596;DHT22;7898;48.658;9.068;2023-03-01T00:53:32;-2.00;99.90
15596;DHT22;7898;48.658;9.068;2023-03-01T00:55:59;-2.40;99.90
15596;DHT22;7898;48.658;9.068;2023-03-01T00:58:26;-2.40;99.90
15596;DHT22;7898;48.658;9.068;2023-03-01T01:00:53;-1.50;99.90
15596;DHT22;7898;48.658;9.068;2023-03-01T01:03:22;-1.50;99.90
15596;DHT22;7898;48.658;9.068;2023-03-01T01:05:50;-1.70;99.90
15596;DHT22;7898;48.658;9.068;2023-03-01T01:08:17;-2.40;99.90
15596;DHT22;7898;48.658;9.068;2023-03-01T01:10:44;-1.60;99.90
15596;DHT22;7898;48.658;9.068;2023-03-01T01:13:11;-1.40;99.90
15596;DHT22;7898;48.658;9.068;2023-03-01T01:15:39;-1.50;99.90
15596;DHT22;7898;48.658;9.068;2023-03-01T01:18:06;-1.70;99.90
15596;DHT22;7898;48.658;9.068;2023-03-01T01:20:35;-2.40;99.90
15596;DHT22;7898;48.658;9.068;2023-03-01T01:23:02;-2.50;99.90
15596;DHT22;7898;48.658;9.068;2023-03-01T01:25:34;-2.50;99.90
15596;DHT22;7898;48.658;9.068;2023-03-01T01:28:01;-2.60;99.90
15596;DHT22;7898;48.658;9.068;2023-03-01T01:30:28;-2.60;99.90
15596;DHT22;7898;48.658;9.068;2023-03-01T01:32:55;-2.60;99.90
15596;DHT22;7898;48.658;9.068;2023-03-01T01:35:22;-2.60;99.90
15596;DHT22;7898;48.658;9.068;2023-03-01T01:37:50;-2.70;99.90
15596;DHT22;7898;48.658;9.068;2023-03-01T01:40:17;-2.10;99.90
15596;DHT22;7898;48.658;9.068;2023-03-01T01:42:44;-2.70;99.90
15596;DHT22;7898;48.658;9.068;2023-03-01T01:45:30;-2.70;99.90
15596;DHT22;7898;48.658;9.068;2023-03-01T01:48:00;-2.30;99.90
15596;DHT22;7898;48.658;9.068;2023-03-01T01:50:29;-1.60;99.90
15596;DHT22;7898;48.658;9.068;2023-03-01T01:53:06;-2.70;99.90
15596;DHT22;7898;48.658;9.068;2023-03-01T01:55:36;-2.70;99.90
15596;DHT22;7898;48.658;9.068;2023-03-01T01:58:06;-1.70;99.90
15596;DHT22;7898;48.658;9.068;2023-03-01T02:00:34;-2.70;99.90
15596;DHT22;7898;48.658;9.068;2023-03-01T02:03:04;-2.60;99.90
15596;DHT22;7898;48.658;9.068;2023-03-01T02:05:38;-2.60;99.90
15596;DHT22;7898;48.658;9.068;2023-03-01T02:08:08;-2.70;99.90
15596;DHT22;7898;48.658;9.068;2023-03-01T02:10:37;-2.60;99.90
15596;DHT22;7898;48.658;9.068;2023-03-01T02:13:05;-1.60;99.90
15596;DHT22;7898;48.658;9.068;2023-03-01T02:15:34;-2.50;99.90
15596;DHT22;7898;48.658;9.068;2023-03-01T02:18:02;-2.40;99.90
15596;DHT22;7898;48.658;9.068;2023-03-01T02:20:35;-2.30;99.90
15596;DHT22;7898;48.658;9.068;2023-03-01T02:23:07;-2.30;99.90
15596;DHT22;7898;48.658;9.068;2023-03-01T02:25:40;-2.20;99.90
15596;DHT22;7898;48.658;9.068;2023-03-01T02:28:21;-2.00;99.90
15596;DHT22;7898;48.658;9.068;2023-03-01T02:30:49;-2.00;99.90
15596;DHT22;7898;48.658;9.068;2023-03-01T02:33:36;-1.40;99.90
15596;DHT22;7898;48.658;9.068;2023-03-01T02:36:06;-1.70;99.90
15596;DHT22;7898;48.658;9.068;2023-03-01T02:38:33;-1.80;99.90
15596;DHT22;7898;48.658;9.068;2023-03-01T02:41:02;-0.80;99.90
15596;DHT22;7898;48.658;9.068;2023-03-01T02:43:32;-1.70;99.90
15596;DHT22;7898;48.658;9.068;2023-03-01T02:46:03;-1.70;99.90
15596;DHT22;7898;48.658;9.068;2023-03-01T02:48:40;-1.70;99.90
15596;DHT22;7898;48.658;9.068;2023-03-01T02:51:12;-1.20;99.90
15596;DHT22;7898;48.658;9.068;2023-03-01T02:53:48;-1.60;99.90
15596;DHT22;7898;48.658;9.068;2023-03-01T02:56:20;-1.60;99.90
15596;DHT22;7898;48.658;9.068;2023-03-01T02:58:49;-1.50;99.90
15596;DHT22;7898;48.658;9.068;2023-03-01T03:01:17;-0.70;99.90
15596;DHT22;7898;48.658;9.068;2023-03-01T03:03:44;-1.40;99.90
15596;DHT22;7898;48.658;9.068;2023-03-01T03:06:12;-0.50;99.90
15596;DHT22;7898;48.658;9.068;2023-03-01T03:08:39;-1.40;99.90
15596;DHT22;7898;48.658;9.068;2023-03-01T03:11:06;-1.30;99.90
15596;DHT22;7898;48.658;9.068;2023-03-01T03:13:33;-0.50;99.90
15596;DHT22;7898;48.658;9.068;2023-03-01T03:16:02;-0.40;99.90
15596;DHT22;7898;48.658;9.068;2023-03-01T03:18:30;-1.20;99.90
15596;DHT22;7898;48.658;9.068;2023-03-01T03:20:56;-1.30;99.90
15596;DHT22;7898;48.658;9.068;2023-03-01T03:23:24;-1.30;99.90
15596;DHT22;7898;48.658;9.068;2023-03-01T03:25:51;-1.30;99.90
15596;DHT22;7898;48.658;9.068;2023-03-01T03:28:18;-1.30;99.90
15596;DHT22;7898;48.658;9.068;2023-03-01T03:30:45;-1.30;99.90
15596;DHT22;7898;48.658;9.068;2023-03-01T03:33:14;-0.90;99.90
15596;DHT22;7898;48.658;9.068;2023-03-01T03:35:42;-0.30;99.90
15596;DHT22;7898;48.658;9.068;2023-03-01T03:38:11;-1.30;99.90
15596;DHT22;7898;48.658;9.068;2023-03-01T03:40:44;-1.30;99.90
15596;DHT22;7898;48.658;9.068;2023-03-01T03:43:13;-1.20;99.90
15596;DHT22;7898;48.658;9.068;2023-03-01T03:45:40;-0.70;99.90
15596;DHT22;7898;48.658;9.068;2023-03-01T03:48:08;-0.20;99.90
15596;DHT22;7898;48.658;9.068;2023-03-01T03:50:40;-0.90;99.90
15596;DHT22;7898;48.658;9.068;2023-03-01T03:53:11;-1.10;99.90
15596;DHT22;7898;48.658;9.068;2023-03-01T03:55:38;-1.10;99.90
15596;DHT22;7898;48.658;9.068;2023-03-01T03:58:08;-0.90;99.90
15596;DHT22;7898;48.658;9.068;2023-03-01T04:00:35;-1.10;99.90
15596;DHT22;7898;48.658;9.068;2023-03-01T04:03:03;-0.30;99.90
15596;DHT22;7898;48.658;9.068;2023-03-01T04:05:30;-1.00;99.90
15596;DHT22;7898;48.658;9.068;2023-03-01T04:07:59;-1.00;99.90
15596;DHT22;7898;48.658;9.068;2023-03-01T04:10:34;-1.00;99.90
15596;DHT22;7898;48.658;9.068;2023-03-01T04:13:01;-1.00;99.90
15596;DHT22;7898;48.658;9.068;2023-03-01T04:15:28;-1.00;99.90
15596;DHT22;7898;48.658;9.068;2023-03-01T04:17:55;-1.00;99.90
15596;DHT22;7898;48.658;9.068;2023-03-01T04:20:24;-0.90;99.90
15596;DHT22;7898;48.658;9.068;2023-03-01T04:22:56;-0.80;99.90
15596;DHT22;7898;48.658;9.068;2023-03-01T04:25:25;-1.00;99.90
15596;DHT22;7898;48.658;9.068;2023-03-01T04:27:52;-0.30;99.90
15596;DHT22;7898;48.658;9.068;2023-03-01T04:30:19;-1.00;99.90
15596;DHT22;7898;48.658;9.068;2023-03-01T04:32:50;-1.00;99.90
15596;DHT22;7898;48.658;9.068;2023-03-01T04:35:17;-0.40;99.90
15596;DHT22;7898;48.658;9.068;2023-03-01T04:37:44;-0.20;99.90
15596;DHT22;7898;48.658;9.068;2023-03-01T04:40:12;-0.80;99.90
15596;DHT22;7898;48.658;9.068;2023-03-01T04:42:43;-1.00;99.90
15596;DHT22;7898;48.658;9.068;2023-03-01T04:45:13;-1.00;99.90
15596;DHT22;7898;48.658;9.068;2023-03-01T04:47:40;-1.00;99.90
15596;DHT22;7898;48.658;9.068;2023-03-01T04:50:09;-1.00;99.90
15596;DHT22;7898;48.658;9.068;2023-03-01T04:52:37;-0.80;99.90
15596;DHT22;7898;48.658;9.068;2023-03-01T04:55:05;-1.00;99.90
15596;DHT22;7898;48.658;9.068;2023-03-01T04:57:33;-1.00;99.90
15596;DHT22;7898;48.658;9.068;2023-03-01T05:00:01;0.00;99.90
15596;DHT22;7898;48.658;9.068;2023-03-01T05:02:46;-0.60;99.90
15596;DHT22;7898;48.658;9.068;2023-03-01T05:05:14;-1.00;99.90
15596;DHT22;7898;48.658;9.068;2023-03-01T05:07:41;-0.90;99.90
15596;DHT22;7898;48.658;9.068;2023-03-01T05:10:08;-1.00;99.90
15596;DHT22;7898;48.658;9.068;2023-03-01T05:12:35;-0.90;99.90
15596;DHT22;7898;48.658;9.068;2023-03-01T05:15:05;-0.90;99.90
15596;DHT22;7898;48.658;9.068;2023-03-01T05:17:33;-0.90;99.90
15596;DHT22;7898;48.658;9.068;2023-03-01T05:20:00;-0.90;99.90
15596;DHT22;7898;48.658;9.068;2023-03-01T05:22:31;-0.90;99.90
15596;DHT22;7898;48.658;9.068;2023-03-01T05:24:58;-0.90;99.90
15596;DHT22;7898;48.658;9.068;2023-03-01T05:27:25;-0.90;99.90
15596;DHT22;7898;48.658;9.068;2023-03-01T05:29:52;-0.80;99.90
15596;DHT22;7898;48.658;9.068;2023-03-01T05:32:20;-0.20;99.90
15596;DHT22;7898;48.658;9.068;2023-03-01T05:34:47;0.00;99.90
15596;DHT22;7898;48.658;9.068;2023-03-01T05:37:14;-0.20;99.90
15596;DHT22;7898;48.658;9.068;2023-03-01T05:39:43;-0.80;99.90
15596;DHT22;7898;48.658;9.068;2023-03-01T05:42:11;-0.20;99.90
15596;DHT22;7898;48.658;9.068;2023-03-01T05:44:38;-0.80;99.90
15596;DHT22;7898;48.658;9.068;2023-03-01T05:47:06;0.10;99.90
15596;DHT22;7898;48.658;9.068;2023-03-01T05:49:34;-0.80;99.90
15596;DHT22;7898;48.658;9.068;2023-03-01T05:52:01;-0.70;99.90
15596;DHT22;7898;48.658;9.068;2023-03-01T05:54:28;-0.80;99.90
15596;DHT22;7898;48.658;9.068;2023-03-01T05:56:54;-0.80;99.90
15596;DHT22;7898;48.658;9.068;2023-03-01T05:59:21;-0.70;99.90
15596;DHT22;7898;48.658;9.068;2023-03-01T06:01:48;-0.70;99.90
15596;DHT22;7898;48.658;9.068;2023-03-01T06:04:15;-0.70;99.90
15596;DHT22;7898;48.658;9.068;2023-03-01T06:06:43;-0.70;99.90
15596;DHT22;7898;48.658;9.068;2023-03-01T06:09:10;-0.70;99.90
15596;DHT22;7898;48.658;9.068;2023-03-01T06:11:37;-0.70;99.90
15596;DHT22;7898;48.658;9.068;2023-03-01T06:14:06;0.10;99.90
15596;DHT22;7898;48.658;9.068;2023-03-01T06:16:33;0.10;99.90
15596;DHT22;7898;48.658;9.068;2023-03-01T06:19:00;-0.20;99.90
15596;DHT22;7898;48.658;9.068;2023-03-01T06:21:27;-0.70;99.90
15596;DHT22;7898;48.658;9.068;2023-03-01T06:23:55;-0.60;99.90
15596;DHT22;7898;48.658;9.068;2023-03-01T06:26:22;-0.40;99.90
15596;DHT22;7898;48.658;9.068;2023-03-01T06:28:49;0.70;99.90
15596;DHT22;7898;48.658;9.068;2023-03-01T06:31:16;0.00;99.90
15596;DHT22;7898;48.658;9.068;2023-03-01T06:33:43;0.20;99.90
15596;DHT22;7898;48.658;9.068;2023-03-01T06:36:13;0.30;99.90
15596;DHT22;7898;48.658;9.068;2023-03-01T06:38:44;0.30;99.90
15596;DHT22;7898;48.658;9.068;2023-03-01T06:41:12;1.00;99.90
15596;DHT22;7898;48.658;9.068;2023-03-01T06:43:39;0.70;99.90
15596;DHT22;7898;48.658;9.068;2023-03-01T06:46:06;2.00;99.90
15596;DHT22;7898;48.658;9.068;2023-03-01T06:48:33;1.40;99.90
15596;DHT22;7898;48.658;9.068;2023-03-01T06:51:00;1.70;99.90
15596;DHT22;7898;48.658;9.068;2023-03-01T06:53:28;2.00;99.90
15596;DHT22;7898;48.658;9.068;2023-03-01T06:55:55;2.10;99.90
15596;DHT22;7898;48.658;9.068;2023-03-01T06:58:24;2.90;99.90
15596;DHT22;7898;48.658;9.068;2023-03-01T07:00:51;3.00;99.90
15596;DHT22;7898;48.658;9.068;2023-03-01T07:03:18;2.90;99.90
15596;DHT22;7898;48.658;9.068;2023-03-01T07:05:45;2.70;99.90
15596;DHT22;7898;48.658;9.068;2023-03-01T07:08:17;2.70;99.90
15596;DHT22;7898;48.658;9.068;2023-03-01T07:10:44;3.90;99.90
15596;DHT22;7898;48.658;9.068;2023-03-01T07:13:13;3.40;99.90
15596;DHT22;7898;48.658;9.068;2023-03-01T07:15:42;3.60;99.90
15596;DHT22;7898;48.658;9.068;2023-03-01T07:18:09;4.30;99.90
15596;DHT22;7898;48.658;9.068;2023-03-01T07:20:39;4.00;99.90
15596;DHT22;7898;48.658;9.068;2023-03-01T07:23:06;3.90;99.90
15596;DHT22;7898;48.658;9.068;2023-03-01T07:25:33;4.10;99.90
15596;DHT22;7898;48.658;9.068;2023-03-01T07:28:00;4.20;99.90
15596;DHT22;7898;48.658;9.068;2023-03-01T07:30:38;5.20;99.90
15596;DHT22;7898;48.658;9.068;2023-03-01T07:33:20;4.60;99.90
15596;DHT22;7898;48.658;9.068;2023-03-01T07:35:48;4.70;99.90
15596;DHT22;7898;48.658;9.068;2023-03-01T07:38:24;5.20;99.90
15596;DHT22;7898;48.658;9.068;2023-03-01T07:40:51;5.10;99.90
15596;DHT22;7898;48.658;9.068;2023-03-01T07:43:18;5.40;99.90
15596;DHT22;7898;48.658;9.068;2023-03-01T07:45:46;5.60;99.90
15596;DHT22;7898;48.658;9.068;2023-03-01T07:48:14;5.50;99.90
15596;DHT22;7898;48.658;9.068;2023-03-01T07:50:41;6.10;99.90
15596;DHT22;7898;48.658;9.068;2023-03-01T07:53:09;5.90;99.90
15596;DHT22;7898;48.658;9.068;2023-03-01T07:55:36;5.80;99.90
15596;DHT22;7898;48.658;9.068;2023-03-01T07:58:04;5.50;99.90
15596;DHT22;7898;48.658;9.068;2023-03-01T08:00:31;5.90;99.90
15596;DHT22;7898;48.658;9.068;2023-03-01T08:02:59;6.00;99.90
15596;DHT22;7898;48.658;9.068;2023-03-01T08:05:28;6.60;99.90
15596;DHT22;7898;48.658;9.068;2023-03-01T08:07:55;6.90;99.90
15596;DHT22;7898;48.658;9.068;2023-03-01T08:10:22;7.10;99.90
15596;DHT22;7898;48.658;9.068;2023-03-01T08:12:51;6.60;99.90
15596;DHT22;7898;48.658;9.068;2023-03-01T08:15:19;6.80;99.90
15596;DHT22;7898;48.658;9.068;2023-03-01T08:17:48;7.00;99.90
15596;DHT22;7898;48.658;9.068;2023-03-01T08:20:16;7.20;99.90
15596;DHT22;7898;48.658;9.068;2023-03-01T08:22:44;7.60;99.90
15596;DHT22;7898;48.658;9.068;2023-03-01T08:25:11;7.50;99.90
15596;DHT22;7898;48.658;9.068;2023-03-01T08:27:38;7.50;99.90
15596;DHT22;7898;48.658;9.068;2023-03-01T08:30:06;7.80;99.90
15596;DHT22;7898;48.658;9.068;2023-03-01T08:32:36;7.60;99.90
15596;DHT22;7898;48.658;9.068;2023-03-01T08:35:04;7.90;99.90
15596;DHT22;7898;48.658;9.068;2023-03-01T08:37:31;7.30;99.90
15596;DHT22;7898;48.658;9.068;2023-03-01T08:40:00;7.30;99.90
15596;DHT22;7898;48.658;9.068;2023-03-01T08:42:28;6.80;99.90
15596;DHT22;7898;48.658;9.068;2023-03-01T08:44:55;7.40;99.90
15596;DHT22;7898;48.658;9.068;2023-03-01T08:47:23;7.00;99.90
15596;DHT22;7898;48.658;9.068;2023-03-01T08:49:50;7.10;99.90
15596;DHT22;7898;48.658;9.068;2023-03-01T08:52:19;7.10;99.90
15596;DHT22;7898;48.658;9.068;2023-03-01T08:54:47;7.40;99.90
15596;DHT22;7898;48.658;9.068;2023-03-01T08:57:16;7.50;99.90
15596;DHT22;7898;48.658;9.068;2023-03-01T08:59:43;7.70;99.90
15596;DHT22;7898;48.658;9.068;2023-03-01T09:02:13;8.10;99.90
15596;DHT22;7898;48.658;9.068;2023-03-01T09:04:40;8.30;99.90
15596;DHT22;7898;48.658;9.068;2023-03-01T09:07:08;8.70;99.90
15596;DHT22;7898;48.658;9.068;2023-03-01T09:09:35;8.90;99.90
15596;DHT22;7898;48.658;9.068;2023-03-01T09:12:03;8.50;99.90
15596;DHT22;7898;48.658;9.068;2023-03-01T09:14:32;8.40;99.90
15596;DHT22;7898;48.658;9.068;2023-03-01T09:17:00;8.50;99.90
15596;DHT22;7898;48.658;9.068;2023-03-01T09:19:28;8.50;99.90
15596;DHT22;7898;48.658;9.068;2023-03-01T09:21:55;8.70;99.90
15596;DHT22;7898;48.658;9.068;2023-03-01T09:24:24;8.60;99.90
15596;DHT22;7898;48.658;9.068;2023-03-01T09:26:53;8.80;99.90
15596;DHT22;7898;48.658;9.068;2023-03-01T09:29:21;8.60;99.90
15596;DHT22;7898;48.658;9.068;2023-03-01T09:31:49;8.50;99.90
15596;DHT22;7898;48.658;9.068;2023-03-01T09:34:16;8.10;99.90
15596;DHT22;7898;48.658;9.068;2023-03-01T09:36:48;8.60;99.90
15596;DHT22;7898;48.658;9.068;2023-03-01T09:39:15;8.70;99.90
15596;DHT22;7898;48.658;9.068;2023-03-01T09:41:47;8.80;99.90
15596;DHT22;7898;48.658;9.068;2023-03-01T09:44:29;8.90;99.90
15596;DHT22;7898;48.658;9.068;2023-03-01T09:46:59;8.60;99.90
15596;DHT22;7898;48.658;9.068;2023-03-01T09:49:28;7.20;99.90
15596;DHT22;7898;48.658;9.068;2023-03-01T09:51:59;7.10;99.90
15596;DHT22;7898;48.658;9.068;2023-03-01T09:54:26;6.50;99.90
15596;DHT22;7898;48.658;9.068;2023-03-01T09:57:04;7.40;99.90
15596;DHT22;7898;48.658;9.068;2023-03-01T09:59:42;7.00;99.90
15596;DHT22;7898;48.658;9.068;2023-03-01T10:02:24;6.40;99.90
15596;DHT22;7898;48.658;9.068;2023-03-01T10:04:56;6.70;99.90
15596;DHT22;7898;48.658;9.068;2023-03-01T10:07:32;7.10;99.90
15596;DHT22;7898;48.658;9.068;2023-03-01T10:10:05;7.90;99.90
15596;DHT22;7898;48.658;9.068;2023-03-01T10:12:35;7.40;99.90
15596;DHT22;7898;48.658;9.068;2023-03-01T10:15:08;7.10;99.90
15596;DHT22;7898;48.658;9.068;2023-03-01T10:17:43;6.70;99.90
15596;DHT22;7898;48.658;9.068;2023-03-01T10:20:19;6.80;99.90
15596;DHT22;7898;48.658;9.068;2023-03-01T10:22:47;7.00;99.90
15596;DHT22;7898;48.658;9.068;2023-03-01T10:25:23;7.10;99.90
15596;DHT22;7898;48.658;9.068;2023-03-01T10:28:02;7.10;99.90
15596;DHT22;7898;48.658;9.068;2023-03-01T10:30:35;7.00;99.90
15596;DHT22;7898;48.658;9.068;2023-03-01T10:33:13;7.60;99.90
15596;DHT22;7898;48.658;9.068;2023-03-01T10:35:41;7.70;99.90
15596;DHT22;7898;48.658;9.068;2023-03-01T10:38:10;7.80;99.90
15596;DHT22;7898;48.658;9.068;2023-03-01T10:40:52;7.80;99.90
15596;DHT22;7898;48.658;9.068;2023-03-01T10:43:20;7.60;99.90
15596;DHT22;7898;48.658;9.068;2023-03-01T10:45:48;7.80;99.90
15596;DHT22;7898;48.658;9.068;2023-03-01T10:48:18;7.40;99.90
15596;DHT22;7898;48.658;9.068;2023-03-01T10:50:50;7.40;99.90
15596;DHT22;7898;48.658;9.068;2023-03-01T10:53:24;7.20;99.90
15596;DHT22;7898;48.658;9.068;2023-03-01T10:56:01;6.70;99.90
15596;DHT22;7898;48.658;9.068;2023-03-01T10:58:28;7.00;99.90
15596;DHT22;7898;48.658;9.068;2023-03-01T11:00:57;7.50;99.90
15596;DHT22;7898;48.658;9.068;2023-03-01T11:03:28;7.20;99.90
15596;DHT22;7898;48.658;9.068;2023-03-01T11:06:19;7.20;99.90
15596;DHT22;7898;48.658;9.068;2023-03-01T11:08:48;7.10;99.90
15596;DHT22;7898;48.658;9.068;2023-03-01T11:11:23;7.10;99.90
15596;DHT22;7898;48.658;9.068;2023-03-01T11:13:56;7.10;99.90
15596;DHT22;7898;48.658;9.068;2023-03-01T11:16:32;7.30;99.90
15596;DHT22;7898;48.658;9.068;2023-03-01T11:19:13;7.40;99.90
15596;DHT22;7898;48.658;9.068;2023-03-01T11:21:44;7.10;99.90
15596;DHT22;7898;48.658;9.068;2023-03-01T11:24:15;7.40;99.90
15596;DHT22;7898;48.658;9.068;2023-03-01T11:26:47;7.50;99.90
15596;DHT22;7898;48.658;9.068;2023-03-01T11:29:26;7.80;99.90
15596;DHT22;7898;48.658;9.068;2023-03-01T11:31:57;8.20;99.90
15596;DHT22;7898;48.658;9.068;2023-03-01T11:34:36;8.10;99.90
15596;DHT22;7898;48.658;9.068;2023-03-01T11:37:24;8.30;99.90
15596;DHT22;7898;48.658;9.068;2023-03-01T11:40:03;8.50;99.90
15596;DHT22;7898;48.658;9.068;2023-03-01T11:45:25;8.20;99.90
15596;DHT22;7898;48.658;9.068;2023-03-01T11:48:07;8.00;99.90
15596;DHT22;7898;48.658;9.068;2023-03-01T11:51:15;8.10;99.90
15596;DHT22;7898;48.658;9.068;2023-03-01T11:54:06;8.30;99.90
15596;DHT22;7898;48.658;9.068;2023-03-01T11:56:39;8.40;99.90
15596;DHT22;7898;48.658;9.068;2023-03-01T12:02:27;8.20;99.90
15596;DHT22;7898;48.658;9.068;2023-03-01T12:05:20;8.30;99.90
15596;DHT22;7898;48.658;9.068;2023-03-01T12:07:56;8.40;99.90
15596;DHT22;7898;48.658;9.068;2023-03-01T12:10:27;8.30;99.90
15596;DHT22;7898;48.658;9.068;2023-03-01T12:19:02;9.20;99.90
15596;DHT22;7898;48.658;9.068;2023-03-01T12:21:55;9.40;99.90
15596;DHT22;7898;48.658;9.068;2023-03-01T12:24:43;9.10;99.90
15596;DHT22;7898;48.658;9.068;2023-03-01T12:27:35;9.00;99.90
15596;DHT22;7898;48.658;9.068;2023-03-01T12:30:21;9.00;99.90
15596;DHT22;7898;48.658;9.068;2023-03-01T12:33:03;9.00;99.90
15596;DHT22;7898;48.658;9.068;2023-03-01T12:35:40;9.20;99.90
15596;DHT22;7898;48.658;9.068;2023-03-01T12:38:19;9.50;99.90
15596;DHT22;7898;48.658;9.068;2023-03-01T12:44:10;9.60;99.90
15596;DHT22;7898;48.658;9.068;2023-03-01T12:46:57;9.60;99.90
15596;DHT22;7898;48.658;9.068;2023-03-01T12:49:33;9.20;99.90
15596;DHT22;7898;48.658;9.068;2023-03-01T12:52:13;8.90;99.90
15596;DHT22;7898;48.658;9.068;2023-03-01T12:54:41;8.90;99.90
15596;DHT22;7898;48.658;9.068;2023-03-01T12:57:15;9.20;99.90
15596;DHT22;7898;48.658;9.068;2023-03-01T13:00:00;9.40;99.90
15596;DHT22;7898;48.658;9.068;2023-03-01T13:02:35;9.50;99.90
15596;DHT22;7898;48.658;9.068;2023-03-01T13:05:20;9.90;99.90
15596;DHT22;7898;48.658;9.068;2023-03-01T13:07:55;9.50;99.90
15596;DHT22;7898;48.658;9.068;2023-03-01T13:10:28;9.60;99.90
15596;DHT22;7898;48.658;9.068;2023-03-01T13:13:18;9.30;99.90
15596;DHT22;7898;48.658;9.068;2023-03-01T13:15:45;9.10;99.90
15596;DHT22;7898;48.658;9.068;2023-03-01T13:18:31;9.50;99.90
15596;DHT22;7898;48.658;9.068;2023-03-01T13:21:00;9.40;99.90
15596;DHT22;7898;48.658;9.068;2023-03-01T13:23:30;9.70;99.90
15596;DHT22;7898;48.658;9.068;2023-03-01T13:26:04;9.80;99.90
15596;DHT22;7898;48.658;9.068;2023-03-01T13:31:59;10.60;99.90
15596;DHT22;7898;48.658;9.068;2023-03-01T13:34:41;10.60;99.90
15596;DHT22;7898;48.658;9.068;2023-03-01T13:37:10;10.60;99.90
15596;DHT22;7898;48.658;9.068;2023-03-01T13:39:39;10.20;99.90
15596;DHT22;7898;48.658;9.068;2023-03-01T13:42:35;10.50;99.90
15596;DHT22;7898;48.658;9.068;2023-03-01T13:47:58;11.00;99.90
15596;DHT22;7898;48.658;9.068;2023-03-01T13:50:28;11.30;99.90
15596;DHT22;7898;48.658;9.068;2023-03-01T13:52:58;11.50;99.90
15596;DHT22;7898;48.658;9.068;2023-03-01T13:55:30;11.50;99.90
15596;DHT22;7898;48.658;9.068;2023-03-01T13:58:05;11.50;99.90
15596;DHT22;7898;48.658;9.068;2023-03-01T14:00:42;11.40;99.90
15596;DHT22;7898;48.658;9.068;2023-03-01T14:03:12;11.60;99.90
15596;DHT22;7898;48.658;9.068;2023-03-01T14:05:41;11.60;99.90
15596;DHT22;7898;48.658;9.068;2023-03-01T14:08:22;11.30;99.90
15596;DHT22;7898;48.658;9.068;2023-03-01T14:11:04;11.40;99.90
15596;DHT22;7898;48.658;9.068;2023-03-01T14:13:52;11.70;99.90
15596;DHT22;7898;48.658;9.068;2023-03-01T14:16:31;12.00;99.90
15596;DHT22;7898;48.658;9.068;2023-03-01T14:19:13;12.00;99.90
15596;DHT22;7898;48.658;9.068;2023-03-01T14:21:42;11.70;99.90
15596;DHT22;7898;48.658;9.068;2023-03-01T14:24:17;11.80;99.90
15596;DHT22;7898;48.658;9.068;2023-03-01T14:26:45;12.30;99.90
15596;DHT22;7898;48.658;9.068;2023-03-01T14:29:26;12.20;99.90
15596;DHT22;7898;48.658;9.068;2023-03-01T14:31:55;12.20;99.90
15596;DHT22;7898;48.658;9.068;2023-03-01T14:34:25;12.50;99.90
15596;DHT22;7898;48.658;9.068;2023-03-01T14:36:52;13.10;99.90
15596;DHT22;7898;48.658;9.068;2023-03-01T14:39:20;13.00;99.90
15596;DHT22;7898;48.658;9.068;2023-03-01T14:41:51;13.60;99.80
15596;DHT22;7898;48.658;9.068;2023-03-01T14:44:20;13.90;99.20
15596;DHT22;7898;48.658;9.068;2023-03-01T14:46:52;13.90;99.20
15596;DHT22;7898;48.658;9.068;2023-03-01T14:49:24;14.00;98.80
15596;DHT22;7898;48.658;9.068;2023-03-01T14:51:55;13.90;98.70
15596;DHT22;7898;48.658;9.068;2023-03-01T14:54:25;13.60;98.80
15596;DHT22;7898;48.658;9.068;2023-03-01T14:56:57;13.50;99.20
15596;DHT22;7898;48.658;9.068;2023-03-01T14:59:24;13.40;99.40
15596;DHT22;7898;48.658;9.068;2023-03-01T15:01:55;13.70;99.00
15596;DHT22;7898;48.658;9.068;2023-03-01T15:04:24;13.60;98.60
15596;DHT22;7898;48.658;9.068;2023-03-01T15:06:52;13.00;98.70
15596;DHT22;7898;48.658;9.068;2023-03-01T15:09:20;12.80;99.60
15596;DHT22;7898;48.658;9.068;2023-03-01T15:11:47;12.80;99.60
15596;DHT22;7898;48.658;9.068;2023-03-01T15:14:28;12.90;99.30
15596;DHT22;7898;48.658;9.068;2023-03-01T15:17:04;12.80;99.40
15596;DHT22;7898;48.658;9.068;2023-03-01T15:19:33;13.10;99.30
15596;DHT22;7898;48.658;9.068;2023-03-01T15:22:00;13.20;99.30
15596;DHT22;7898;48.658;9.068;2023-03-01T15:24:37;13.40;99.90
15596;DHT22;7898;48.658;9.068;2023-03-01T15:27:05;13.40;99.90
15596;DHT22;7898;48.658;9.068;2023-03-01T15:29:33;13.50;99.80
15596;DHT22;7898;48.658;9.068;2023-03-01T15:32:22;13.60;99.40
15596;DHT22;7898;48.658;9.068;2023-03-01T15:34:52;13.50;98.40
15596;DHT22;7898;48.658;9.068;2023-03-01T15:37:36;13.30;99.20
15596;DHT22;7898;48.658;9.068;2023-03-01T15:40:19;12.50;99.20
15596;DHT22;7898;48.658;9.068;2023-03-01T15:42:47;12.10;99.80
15596;DHT22;7898;48.658;9.068;2023-03-01T15:45:22;11.90;99.90
15596;DHT22;7898;48.658;9.068;2023-03-01T15:47:52;11.60;99.90
15596;DHT22;7898;48.658;9.068;2023-03-01T15:50:24;11.60;99.90
15596;DHT22;7898;48.658;9.068;2023-03-01T15:52:52;11.60;99.90
15596;DHT22;7898;48.658;9.068;2023-03-01T15:55:21;11.40;99.90
15596;DHT22;7898;48.658;9.068;2023-03-01T15:57:49;10.80;99.90
15596;DHT22;7898;48.658;9.068;2023-03-01T16:00:17;10.10;99.90
15596;DHT22;7898;48.658;9.068;2023-03-01T16:02:44;9.30;99.90
15596;DHT22;7898;48.658;9.068;2023-03-01T16:05:23;8.50;99.90
15596;DHT22;7898;48.658;9.068;2023-03-01T16:07:51;8.00;99.90
15596;DHT22;7898;48.658;9.068;2023-03-01T16:10:18;7.60;99.90
15596;DHT22;7898;48.658;9.068;2023-03-01T16:12:45;7.30;99.90
15596;DHT22;7898;48.658;9.068;2023-03-01T16:15:17;7.10;99.90
15596;DHT22;7898;48.658;9.068;2023-03-01T16:17:45;6.90;99.90
15596;DHT22;7898;48.658;9.068;2023-03-01T16:20:13;6.80;99.90
15596;DHT22;7898;48.658;9.068;2023-03-01T16:22:43;6.70;99.90
15596;DHT22;7898;48.658;9.068;2023-03-01T16:25:11;6.50;99.90
15596;DHT22;7898;48.658;9.068;2023-03-01T16:27:38;6.40;99.90
15596;DHT22;7898;48.658;9.068;2023-03-01T16:30:09;6.40;99.90
15596;DHT22;7898;48.658;9.068;2023-03-01T16:32:38;6.30;99.90
15596;DHT22;7898;48.658;9.068;2023-03-01T16:35:06;6.10;99.90
15596;DHT22;7898;48.658;9.068;2023-03-01T16:37:34;6.00;99.90